NCAR-RAP Real-Time Weather Data

Output produced by METARs form (08 May 2021  01:07 UTC)
found at http://weather.rap.ucar.edu/surface/
 
KAPF 080053Z 32005KT 10SM CLR 27/16 A3000 RMK AO2 SLP159 T02670161
KAPF 072353Z 31009KT 10SM CLR 27/17 A2998 RMK AO2 SLP150 T02670167 10306 20267 53003
KAPF 072253Z 31013KT 10SM CLR 28/16 A2997 RMK AO2 SLP147 T02830161
KAPF 072153Z AUTO 31010KT 10SM CLR 29/18 A2996 RMK AO2 SLP146 T02890183
KAPF 072053Z AUTO 28015KT 10SM CLR 29/19 A2997 RMK AO2 SLP146 T02940189 56017
KAPF 071953Z AUTO 30014KT 10SM CLR 30/20 A2998 RMK AO2 SLP149 T03000200
KAPF 071853Z AUTO 31010KT 10SM CLR 29/19 A2999 RMK AO2 SLP156 T02940194
KAPF 071753Z 29012G21KT 10SM FEW030 30/21 A3002 RMK AO2 SLP163 T03000206 10300 20267 58007
KAPF 071653Z 32007G16KT 10SM FEW028 29/21 A3003 RMK AO2 SLP167 T02890211
KAPF 071553Z 30011G16KT 10SM FEW029 29/21 A3003 RMK AO2 SLP168 T02940211
KAPF 071453Z 31008KT 10SM CLR 29/21 A3004 RMK AO2 SLP170 T02890211 51007
KAPF 071353Z 31009G17KT 10SM CLR 28/21 A3003 RMK AO2 SLP169 T02830206
KAPF 071253Z 31010KT 10SM FEW023 FEW070 27/22 A3003 RMK AO2 SLP167 T02720217
KAPF 071153Z 32006KT 10SM FEW025 BKN075 27/21 A3002 RMK AO2 SLP163 T02670211 10267 20250 53014
KAPF 071053Z 31007KT 10SM FEW025 27/22 A2999 RMK AO2 SLP155 T02670222
KAPF 070953Z 30005KT 10SM FEW023 26/23 A2998 RMK AO2 SLP151 T02610228